createdAt,value
2023-04-08T00:01:07.792Z,7.95
2023-04-08T00:03:36.801Z,7.80
2023-04-08T00:06:14.020Z,8.10
2023-04-08T00:08:50.875Z,7.10
2023-04-08T00:11:26.433Z,8.18
2023-04-08T00:13:58.357Z,7.22
2023-04-08T00:16:43.574Z,7.97
2023-04-08T00:19:20.970Z,7.80
2023-04-08T00:21:54.511Z,7.65
2023-04-08T00:24:27.637Z,7.53
2023-04-08T00:26:59.674Z,8.00
2023-04-08T00:29:42.667Z,8.10
2023-04-08T00:32:17.742Z,7.40
2023-04-08T00:34:49.960Z,7.78
2023-04-08T00:37:26.970Z,7.72
2023-04-08T00:40:14.485Z,8.32
2023-04-08T00:42:45.636Z,8.15
2023-04-08T00:45:22.422Z,7.90
2023-04-08T00:47:53.085Z,8.25
2023-04-08T00:50:22.140Z,8.48
2023-04-08T00:53:00.243Z,8.25
2023-04-08T00:55:29.251Z,8.77
2023-04-08T00:57:58.563Z,9.15
2023-04-08T01:00:31.032Z,8.35
2023-04-08T01:03:04.140Z,7.75
2023-04-08T01:05:39.106Z,8.77
2023-04-08T01:08:11.033Z,8.68
2023-04-08T01:10:49.035Z,9.68
2023-04-08T01:13:19.834Z,9.70
2023-04-08T01:15:56.470Z,9.82
2023-04-08T01:18:28.028Z,9.98
2023-04-08T01:21:24.575Z,10.20
2023-04-08T01:23:59.404Z,9.82
2023-04-08T01:26:33.431Z,10.00
2023-04-08T01:29:05.723Z,10.52
2023-04-08T01:31:40.531Z,10.52
2023-04-08T01:34:11.945Z,9.82
2023-04-08T01:36:44.728Z,10.18
2023-04-08T01:39:13.640Z,10.27
2023-04-08T01:41:45.662Z,10.20
2023-04-08T01:44:16.610Z,11.20
2023-04-08T01:46:49.964Z,10.98
2023-04-08T01:49:19.580Z,11.73
2023-04-08T01:51:51.551Z,11.20
2023-04-08T01:54:20.870Z,10.95
2023-04-08T01:56:53.762Z,10.50
2023-04-08T01:59:36.708Z,10.37
2023-04-08T02:02:09.034Z,10.93
2023-04-08T02:04:43.642Z,10.90
2023-04-08T02:07:18.837Z,10.23
2023-04-08T02:09:47.460Z,9.82
2023-04-08T02:12:17.611Z,9.98
2023-04-08T02:14:49.644Z,9.93
2023-04-08T02:17:23.584Z,9.82
2023-04-08T02:22:25.627Z,10.30
2023-04-08T02:24:57.982Z,11.07
2023-04-08T02:27:34.574Z,10.25
2023-04-08T02:30:07.437Z,10.57
2023-04-08T02:32:36.721Z,11.05
2023-04-08T02:35:07.346Z,10.38
2023-04-08T02:37:40.555Z,10.63
2023-04-08T02:40:24.743Z,10.70
2023-04-08T02:45:27.286Z,11.02
2023-04-08T02:47:58.975Z,10.38
2023-04-08T02:50:27.660Z,10.57
2023-04-08T02:52:58.503Z,10.00
2023-04-08T02:55:27.485Z,9.77
2023-04-08T02:57:56.706Z,10.40
2023-04-08T03:00:27.343Z,10.80
2023-04-08T03:02:58.161Z,9.80
2023-04-08T03:05:28.165Z,10.25
2023-04-08T03:07:59.518Z,9.30
2023-04-08T03:10:31.291Z,9.68
2023-04-08T03:13:00.193Z,9.05
2023-04-08T03:15:30.963Z,9.32
2023-04-08T03:18:02.804Z,10.90
2023-04-08T03:20:37.703Z,10.50
2023-04-08T03:23:06.635Z,10.68
2023-04-08T03:25:35.372Z,10.80
2023-04-08T03:28:04.775Z,10.90
2023-04-08T03:30:37.793Z,10.38
2023-04-08T03:33:12.865Z,11.30
2023-04-08T03:35:41.905Z,11.10
2023-04-08T03:38:10.984Z,11.07
2023-04-08T03:40:42.233Z,10.68
2023-04-08T03:43:13.219Z,11.07
2023-04-08T03:45:43.631Z,11.38
2023-04-08T03:48:16.431Z,11.02
2023-04-08T03:50:45.863Z,11.80
2023-04-08T03:53:17.852Z,11.57
2023-04-08T03:55:50.673Z,11.63
2023-04-08T03:58:20.043Z,11.67
2023-04-08T04:00:51.556Z,10.90
2023-04-08T04:03:21.063Z,12.00
2023-04-08T04:05:53.217Z,11.80
2023-04-08T04:08:22.978Z,11.23
2023-04-08T04:10:58.151Z,12.02
2023-04-08T04:13:36.464Z,11.90
2023-04-08T04:16:11.756Z,12.13
2023-04-08T04:18:43.698Z,12.15
2023-04-08T04:21:13.102Z,10.93
2023-04-08T04:23:45.902Z,11.30
2023-04-08T04:26:15.377Z,11.85
2023-04-08T04:28:46.209Z,11.20
2023-04-08T04:31:26.815Z,11.35
2023-04-08T04:33:57.267Z,10.30
2023-04-08T04:36:29.033Z,11.95
2023-04-08T04:38:58.050Z,11.45
2023-04-08T04:41:27.395Z,11.18
2023-04-08T04:43:56.092Z,11.15
2023-04-08T04:46:36.996Z,12.02
2023-04-08T04:49:10.515Z,11.55
2023-04-08T04:51:39.868Z,11.80
2023-04-08T04:54:09.120Z,11.93
2023-04-08T04:56:38.155Z,13.55
2023-04-08T04:59:09.900Z,12.57
2023-04-08T05:01:49.563Z,12.38
2023-04-08T05:04:23.803Z,13.20
2023-04-08T05:06:56.974Z,15.30
2023-04-08T05:09:25.890Z,15.88
2023-04-08T05:11:58.041Z,13.68
2023-04-08T05:14:27.079Z,14.05
2023-04-08T05:16:55.987Z,13.40
2023-04-08T05:19:34.280Z,13.63
2023-04-08T05:22:08.145Z,13.15
2023-04-08T05:24:47.567Z,12.52
2023-04-08T05:27:17.763Z,12.77
2023-04-08T05:29:56.679Z,12.60
2023-04-08T05:32:35.092Z,12.70
2023-04-08T05:35:30.823Z,13.63
2023-04-08T05:38:07.203Z,13.40
2023-04-08T05:40:43.223Z,13.55
2023-04-08T05:43:25.190Z,13.00
2023-04-08T05:45:56.576Z,13.57
2023-04-08T05:48:44.588Z,13.45
2023-04-08T05:51:28.520Z,13.55
2023-04-08T05:54:04.317Z,13.45
2023-04-08T05:56:40.359Z,13.23
2023-04-08T05:59:12.404Z,13.68
2023-04-08T06:01:45.535Z,14.43
2023-04-08T06:04:23.497Z,14.10
2023-04-08T06:07:05.131Z,24.65
2023-04-08T06:09:41.369Z,23.55
2023-04-08T06:12:34.807Z,17.75
2023-04-08T06:15:18.177Z,14.25
2023-04-08T06:17:52.417Z,15.20
2023-04-08T06:20:54.251Z,15.18
2023-04-08T06:23:25.451Z,12.55
2023-04-08T06:26:20.229Z,11.45
2023-04-08T06:29:20.681Z,10.85
2023-04-08T06:32:20.542Z,8.98
2023-04-08T06:35:12.077Z,9.02
2023-04-08T06:38:04.132Z,8.43
2023-04-08T06:41:06.669Z,8.25
2023-04-08T06:47:34.060Z,7.60
2023-04-08T06:54:11.416Z,8.73
2023-04-08T06:57:13.945Z,7.43
2023-04-08T07:00:03.421Z,7.82
2023-04-08T07:02:42.013Z,8.23
2023-04-08T07:05:29.024Z,7.93
2023-04-08T07:08:14.420Z,7.03
2023-04-08T07:11:32.889Z,7.38
2023-04-08T07:46:09.083Z,6.75
2023-04-08T08:40:50.147Z,5.22
2023-04-08T08:43:21.771Z,4.30
2023-04-08T08:46:12.662Z,4.70
2023-04-08T08:49:04.420Z,4.53
2023-04-08T08:51:40.102Z,5.00
2023-04-08T08:54:32.693Z,4.80
2023-04-08T08:57:38.216Z,4.63
2023-04-08T09:03:48.324Z,4.22
2023-04-08T09:07:07.425Z,4.13
2023-04-08T09:20:09.912Z,4.00
2023-04-08T09:33:36.632Z,3.97
2023-04-08T09:46:24.436Z,4.18
2023-04-08T09:56:54.897Z,4.10
2023-04-08T10:03:03.099Z,3.60
2023-04-08T10:09:21.770Z,3.35
2023-04-08T10:12:52.674Z,3.45
2023-04-08T16:28:43.250Z,4.75
2023-04-08T16:31:43.109Z,4.70
2023-04-08T19:22:23.173Z,7.10
2023-04-08T19:29:03.075Z,7.25
2023-04-08T19:39:06.604Z,7.97
2023-04-08T19:42:30.131Z,8.25
2023-04-08T19:45:57.417Z,7.60
2023-04-08T19:55:49.317Z,8.50
2023-04-08T19:59:24.446Z,8.75
2023-04-08T20:56:15.660Z,9.80
2023-04-08T21:01:52.508Z,16.95
2023-04-08T21:04:32.945Z,18.25
2023-04-08T21:08:00.614Z,12.23
2023-04-08T21:10:39.292Z,10.85
2023-04-08T21:13:26.792Z,10.18
2023-04-08T21:16:06.412Z,10.43
2023-04-08T21:19:07.146Z,9.00
2023-04-08T21:21:38.239Z,10.15
2023-04-08T21:24:12.416Z,10.60
2023-04-08T21:26:57.251Z,9.95
2023-04-08T21:29:42.874Z,10.32
2023-04-08T21:32:30.318Z,10.43
2023-04-08T21:35:01.848Z,11.25
2023-04-08T21:37:36.165Z,10.73
2023-04-08T21:40:35.601Z,11.50
2023-04-08T21:43:24.091Z,10.40
2023-04-08T21:46:12.505Z,10.38
2023-04-08T21:49:00.150Z,10.40
2023-04-08T21:51:46.458Z,11.60
2023-04-08T21:54:15.341Z,10.65
2023-04-08T22:00:35.058Z,10.18
2023-04-08T22:03:20.623Z,11.15
2023-04-08T22:05:54.389Z,11.45
2023-04-08T22:08:31.925Z,11.73
2023-04-08T22:11:14.253Z,11.00
2023-04-08T22:13:52.220Z,11.63
2023-04-08T22:19:57.468Z,11.40
2023-04-08T22:22:35.322Z,11.13
2023-04-08T22:25:15.265Z,11.10
2023-04-08T22:27:50.103Z,11.68
2023-04-08T22:30:21.168Z,10.63
2023-04-08T22:32:51.434Z,11.68
2023-04-08T22:38:10.133Z,11.18
2023-04-08T22:40:42.696Z,11.90
2023-04-08T22:43:24.681Z,11.80
2023-04-08T22:46:15.875Z,10.98
2023-04-08T22:48:53.753Z,11.13
2023-04-08T22:51:26.574Z,10.30
2023-04-08T22:54:03.820Z,11.68
2023-04-08T22:56:39.815Z,10.25
2023-04-08T23:02:06.922Z,10.95
2023-04-08T23:04:42.820Z,10.25
2023-04-08T23:07:11.860Z,11.18
2023-04-08T23:09:48.856Z,11.10
2023-04-08T23:12:39.835Z,10.57
2023-04-08T23:15:24.495Z,11.18
2023-04-08T23:18:00.534Z,10.70
2023-04-08T23:20:39.366Z,10.63
2023-04-08T23:23:12.205Z,10.82
2023-04-08T23:25:55.832Z,11.93
2023-04-08T23:28:31.609Z,11.52
2023-04-08T23:31:00.571Z,11.82
2023-04-08T23:33:32.863Z,11.23
2023-04-08T23:36:05.328Z,10.73
2023-04-08T23:38:42.495Z,10.73
2023-04-08T23:41:21.097Z,11.88
2023-04-08T23:43:50.180Z,11.05
2023-04-08T23:46:29.919Z,12.30
2023-04-08T23:48:58.593Z,11.35
2023-04-08T23:51:30.224Z,11.65
2023-04-08T23:54:06.720Z,10.82
2023-04-08T23:56:40.121Z,11.55
2023-04-08T23:59:12.759Z,10.85
